createdAt,value
2023-03-18T00:01:58.442Z,12.4
2023-03-18T00:04:02.031Z,12.4
2023-03-18T00:06:08.567Z,12.3
2023-03-18T00:08:12.158Z,12.2
2023-03-18T00:10:15.682Z,12.3
2023-03-18T00:12:19.209Z,12.2
2023-03-18T00:14:22.777Z,12.3
2023-03-18T00:16:26.327Z,12.2
2023-03-18T00:18:29.794Z,12.2
2023-03-18T00:22:39.985Z,12.1
2023-03-18T00:24:43.527Z,12.1
2023-03-18T00:26:47.066Z,12
2023-03-18T00:28:50.619Z,12
2023-03-18T00:30:54.193Z,11.9
2023-03-18T00:32:57.746Z,12
2023-03-18T00:35:04.437Z,12
2023-03-18T00:37:07.852Z,11.9
2023-03-18T00:39:11.422Z,11.9
2023-03-18T00:41:14.977Z,11.9
2023-03-18T00:49:32.250Z,11.5
2023-03-18T00:53:39.364Z,11.4
2023-03-18T00:56:47.730Z,11.4
2023-03-18T00:58:51.238Z,11.4
2023-03-18T01:03:01.441Z,11.3
2023-03-18T01:07:08.547Z,11.3
2023-03-18T01:09:12.138Z,11.4
2023-03-18T01:11:15.658Z,11.4
2023-03-18T01:13:19.223Z,11.5
2023-03-18T01:15:22.727Z,11.4
2023-03-18T01:17:29.514Z,11.4
2023-03-18T01:19:33.057Z,11.4
2023-03-18T01:21:36.619Z,11.4
2023-03-18T01:23:40.192Z,11.4
2023-03-18T01:25:43.794Z,11.4
2023-03-18T01:27:47.273Z,11.4
2023-03-18T01:29:50.817Z,11.3
2023-03-18T01:31:57.657Z,11.3
2023-03-18T01:34:01.030Z,11.3
2023-03-18T01:36:04.646Z,11.3
2023-03-18T01:38:08.220Z,11.2
2023-03-18T01:40:11.739Z,11.2
2023-03-18T01:42:15.298Z,11.3
2023-03-18T01:44:18.844Z,11.3
2023-03-18T01:48:29.043Z,11.2
2023-03-18T01:50:33.086Z,11.2
2023-03-18T01:51:35.954Z,11.2
2023-03-18T01:53:39.480Z,11.1
2023-03-18T01:55:43.053Z,11.2
2023-03-18T01:57:46.656Z,11.2
2023-03-18T01:59:53.222Z,11.2
2023-03-18T02:01:56.820Z,11.1
2023-03-18T02:04:00.471Z,11.1
2023-03-18T02:06:03.930Z,11.1
2023-03-18T02:08:07.532Z,11
2023-03-18T02:10:11.145Z,11
2023-03-18T02:12:14.607Z,11
2023-03-18T02:14:21.271Z,10.9
2023-03-18T02:16:24.907Z,10.9
2023-03-18T02:18:28.406Z,10.8
2023-03-18T02:20:32.326Z,10.8
2023-03-18T02:22:35.536Z,10.7
2023-03-18T02:24:39.121Z,10.7
2023-03-18T02:26:43.166Z,10.7
2023-03-18T02:28:49.303Z,10.7
2023-03-18T02:30:52.926Z,10.7
2023-03-18T02:34:59.979Z,10.6
2023-03-18T02:37:03.550Z,10.6
2023-03-18T02:39:07.117Z,10.6
2023-03-18T02:41:10.720Z,10.5
2023-03-18T02:43:17.348Z,10.6
2023-03-18T02:45:20.916Z,10.6
2023-03-18T02:47:24.508Z,10.5
2023-03-18T02:48:27.843Z,10.5
2023-03-18T02:50:31.668Z,10.6
2023-03-18T02:52:34.975Z,10.5
2023-03-18T02:54:38.554Z,10.4
2023-03-18T02:56:45.189Z,10.4
2023-03-18T02:58:51.298Z,10.4
2023-03-18T03:00:52.328Z,10.4
2023-03-18T03:07:03.109Z,10.4
2023-03-18T03:11:13.297Z,10.3
2023-03-18T03:17:23.992Z,10.2
2023-03-18T03:21:31.180Z,10.3
2023-03-18T03:25:41.360Z,10.2
2023-03-18T03:27:44.971Z,10.3
2023-03-18T03:29:48.532Z,10.2
2023-03-18T03:31:52.125Z,10.3
2023-03-18T03:33:55.700Z,10.4
2023-03-18T03:35:59.300Z,10.4
2023-03-18T03:38:02.847Z,10.4
2023-03-18T03:40:09.492Z,10.4
2023-03-18T03:42:13.076Z,10.4
2023-03-18T03:44:16.675Z,10.4
2023-03-18T03:46:35.134Z,10.4
2023-03-18T03:50:42.126Z,10.4
2023-03-18T03:54:52.334Z,10.4
2023-03-18T03:58:59.485Z,10.4
2023-03-18T04:01:03.105Z,10.4
2023-03-18T04:03:06.675Z,10.3
2023-03-18T04:05:10.240Z,10.3
2023-03-18T04:07:16.932Z,10.2
2023-03-18T04:09:20.490Z,10.2
2023-03-18T04:11:24.091Z,10.2
2023-03-18T04:15:31.235Z,10.2
2023-03-18T04:17:34.787Z,10.2
2023-03-18T04:21:45.035Z,10.2
2023-03-18T04:25:52.203Z,10.2
2023-03-18T04:27:55.763Z,10.2
2023-03-18T04:29:59.357Z,10.3
2023-03-18T04:32:02.962Z,10.3
2023-03-18T04:34:06.506Z,10.5
2023-03-18T04:36:13.161Z,10.6
2023-03-18T04:38:16.723Z,10.6
2023-03-18T04:40:20.304Z,10.6
2023-03-18T04:41:23.621Z,10.5
2023-03-18T04:51:44.572Z,10.5
2023-03-18T04:55:51.736Z,10.6
2023-03-18T05:02:02.430Z,10.6
2023-03-18T05:06:12.677Z,10.6
2023-03-18T05:14:26.979Z,10.6
2023-03-18T05:22:44.361Z,10.6
2023-03-18T05:37:12.469Z,10.5
2023-03-18T05:38:15.769Z,10.6
2023-03-18T05:40:19.340Z,10.5
2023-03-18T05:42:22.917Z,10.6
2023-03-18T05:44:26.500Z,10.6
2023-03-18T05:46:33.212Z,10.5
2023-03-18T05:52:43.832Z,10.5
2023-03-18T05:58:54.550Z,10.5
2023-03-18T06:01:01.182Z,10.5
2023-03-18T06:03:04.824Z,10.5
2023-03-18T06:05:08.344Z,10.5
2023-03-18T06:07:11.896Z,10.5
2023-03-18T06:09:15.486Z,10.5
2023-03-18T06:11:19.036Z,10.5
2023-03-18T06:13:22.645Z,10.5
2023-03-18T06:17:32.840Z,10.5
2023-03-18T06:19:36.447Z,10.5
2023-03-18T06:21:40.088Z,10.5
2023-03-18T06:23:43.552Z,10.5
2023-03-18T06:29:57.363Z,10.5
2023-03-18T06:34:04.520Z,10.5
2023-03-18T06:35:07.849Z,10.6
2023-03-18T06:37:11.436Z,10.6
2023-03-18T06:39:14.993Z,10.6
2023-03-18T06:41:18.576Z,10.7
2023-03-18T06:43:25.235Z,10.7
2023-03-18T06:45:28.815Z,10.8
2023-03-18T06:47:32.406Z,10.8
2023-03-18T06:49:35.972Z,10.8
2023-03-18T06:51:41.136Z,10.8
2023-03-18T06:53:44.629Z,10.8
2023-03-18T06:55:48.241Z,10.8
2023-03-18T06:57:54.880Z,10.9
2023-03-18T06:59:58.455Z,10.9
2023-03-18T07:02:02.006Z,11
2023-03-18T07:04:05.641Z,11
2023-03-18T07:06:09.144Z,11
2023-03-18T07:08:12.714Z,11
2023-03-18T07:10:16.306Z,11.1
2023-03-18T07:12:22.956Z,11.1
2023-03-18T07:14:26.517Z,11.2
2023-03-18T07:16:30.362Z,11.2
2023-03-18T07:18:33.657Z,11.2
2023-03-18T07:20:37.198Z,11.3
2023-03-18T07:22:40.740Z,11.3
2023-03-18T07:24:44.333Z,11.4
2023-03-18T07:26:51.129Z,11.5
2023-03-18T07:28:54.493Z,11.5
2023-03-18T07:30:58.128Z,11.7
2023-03-18T07:33:22.399Z,11.9
2023-03-18T07:39:36.145Z,11.9
2023-03-18T07:51:57.484Z,12.7
2023-03-18T07:54:04.120Z,12.3
2023-03-18T07:56:07.682Z,12.2
2023-03-18T07:58:11.254Z,11.9
2023-03-18T08:00:14.772Z,11.7
2023-03-18T08:02:18.345Z,13.6
2023-03-18T08:04:22.038Z,16
2023-03-18T08:06:25.412Z,17.1
2023-03-18T08:08:32.082Z,17.5
2023-03-18T08:10:35.625Z,17.6
2023-03-18T08:12:52.218Z,18
2023-03-18T08:14:42.669Z,17.8
2023-03-18T08:18:49.752Z,17.6
2023-03-18T08:20:53.266Z,17.4
2023-03-18T08:25:03.407Z,15.7
2023-03-18T08:27:06.889Z,14.6
2023-03-18T08:30:13.827Z,13.7
2023-03-18T08:34:20.698Z,13.5
2023-03-18T08:36:27.294Z,13.6
2023-03-18T08:38:30.822Z,14.1
2023-03-18T08:40:34.307Z,15.1
2023-03-18T08:44:41.330Z,14.5
2023-03-18T08:46:44.827Z,14
2023-03-18T08:48:48.352Z,13.8
2023-03-18T08:50:54.929Z,13.6
2023-03-18T08:55:01.901Z,14.1
2023-03-18T08:57:05.425Z,14.1
2023-03-18T09:05:22.498Z,14
2023-03-18T09:09:42.613Z,14.3
2023-03-18T09:11:33.011Z,13.8
2023-03-18T09:13:38.725Z,13.7
2023-03-18T09:15:39.962Z,13.8
2023-03-18T09:17:59.892Z,13.7
2023-03-18T09:19:50.079Z,13.8
2023-03-18T09:21:53.532Z,14.2
2023-03-18T09:25:00.317Z,14.6
2023-03-18T09:27:03.815Z,14.5
2023-03-18T09:29:07.321Z,14.5
2023-03-18T09:31:10.896Z,14.6
2023-03-18T09:33:17.396Z,15.4
2023-03-18T09:35:20.853Z,16.1
2023-03-18T09:37:24.331Z,15.6
2023-03-18T09:39:27.824Z,14.8
2023-03-18T09:41:31.332Z,15.1
2023-03-18T09:43:34.824Z,15.4
2023-03-18T09:47:44.845Z,15.1
2023-03-18T09:49:48.324Z,15.6
2023-03-18T09:51:51.773Z,16.1
2023-03-18T09:53:55.218Z,16.5
2023-03-18T09:55:58.698Z,16.1
2023-03-18T09:58:02.180Z,16.3
2023-03-18T10:00:05.607Z,16.7
2023-03-18T10:02:12.049Z,16.9
2023-03-18T10:04:15.538Z,17.1
2023-03-18T10:06:18.966Z,17
2023-03-18T10:08:22.266Z,17.1
2023-03-18T10:10:25.592Z,17
2023-03-18T10:12:28.902Z,16.6
2023-03-18T10:14:32.307Z,17
2023-03-18T10:16:38.593Z,16.8
2023-03-18T10:18:41.882Z,17.2
2023-03-18T10:20:45.159Z,17.1
2023-03-18T10:21:48.315Z,16.6
2023-03-18T10:23:51.566Z,16.7
2023-03-18T10:25:54.805Z,16.9
2023-03-18T10:30:04.370Z,17
2023-03-18T10:40:20.584Z,17.7
2023-03-18T10:42:23.821Z,17.6
2023-03-18T10:44:30.036Z,18
2023-03-18T10:46:33.382Z,18.1
2023-03-18T10:52:42.870Z,17
2023-03-18T10:54:46.033Z,17.3
2023-03-18T10:56:49.241Z,17.7
2023-03-18T10:58:55.425Z,17.9
2023-03-18T11:00:58.602Z,18.1
2023-03-18T11:03:01.919Z,18.2
2023-03-18T11:05:05.055Z,17.9
2023-03-18T11:07:08.160Z,17.5
2023-03-18T11:09:11.338Z,17.6
2023-03-18T11:11:14.501Z,17.6
2023-03-18T11:13:20.721Z,17.1
2023-03-18T11:15:23.891Z,17.1
2023-03-18T11:17:27.093Z,17.6
2023-03-18T11:19:50.904Z,17.5
2023-03-18T11:21:54.093Z,17.2
2023-03-18T11:23:57.299Z,16.9
2023-03-18T11:26:03.493Z,17
2023-03-18T11:28:06.667Z,17.2
2023-03-18T11:32:13.089Z,17.4
2023-03-18T11:36:19.528Z,17.6
2023-03-18T11:38:22.697Z,18.1
2023-03-18T11:40:28.919Z,18.3
2023-03-18T11:42:32.170Z,18.4
2023-03-18T11:44:35.325Z,18.5
2023-03-18T11:46:38.494Z,18.2
2023-03-18T11:48:41.679Z,18.1
2023-03-18T11:50:44.838Z,17.9
2023-03-18T11:52:48.000Z,17.4
2023-03-18T11:54:54.187Z,17.8
2023-03-18T11:56:57.351Z,17.8
2023-03-18T12:01:03.692Z,17.9
2023-03-18T12:07:13.228Z,18.8
2023-03-18T12:11:22.571Z,17.9
2023-03-18T12:16:32.051Z,19
2023-03-18T12:18:35.168Z,18.9
2023-03-18T12:20:38.308Z,18.2
2023-03-18T12:22:44.537Z,17.8
2023-03-18T12:24:47.675Z,17.6
2023-03-18T12:26:50.847Z,17.5
2023-03-18T12:28:54.010Z,17.4
2023-03-18T12:30:57.190Z,17.3
2023-03-18T12:35:03.579Z,17
2023-03-18T12:39:13.024Z,17.1
2023-03-18T12:45:22.634Z,17.3
2023-03-18T12:47:27.410Z,17.5
2023-03-18T12:51:36.971Z,17.3
2023-03-18T12:53:40.217Z,17.2
2023-03-18T12:55:43.535Z,17.1
2023-03-18T12:57:46.797Z,17.1
2023-03-18T12:59:53.025Z,17.2
2023-03-18T13:01:53.536Z,17.2
2023-03-18T13:06:03.113Z,17.5
2023-03-18T13:10:09.813Z,17.7
2023-03-18T13:11:12.966Z,17.4
2023-03-18T13:13:16.242Z,17.3
2023-03-18T13:15:19.591Z,17.2
2023-03-18T13:17:22.991Z,17
2023-03-18T13:19:29.389Z,16.8
2023-03-18T13:21:32.729Z,16.6
2023-03-18T13:23:36.023Z,16.5
2023-03-18T13:25:39.387Z,16.5
2023-03-18T13:29:46.106Z,16.4
2023-03-18T13:31:49.452Z,16.3
2023-03-18T13:33:55.929Z,16.3
2023-03-18T13:35:59.337Z,16.2
2023-03-18T13:38:02.749Z,16.1
2023-03-18T13:40:06.108Z,16
2023-03-18T13:42:09.543Z,16
2023-03-18T13:44:12.929Z,16
2023-03-18T13:46:16.373Z,16
2023-03-18T13:48:22.826Z,16
2023-03-18T13:52:29.697Z,16.1
2023-03-18T13:54:33.143Z,16.1
2023-03-18T13:56:36.561Z,16
2023-03-18T13:58:39.988Z,15.9
2023-03-18T14:00:43.422Z,15.7
2023-03-18T14:02:49.999Z,15.6
2023-03-18T14:04:53.380Z,15.6
2023-03-18T14:14:10.366Z,15.5
2023-03-18T14:18:20.274Z,15.2
2023-03-18T14:22:27.023Z,15.1
2023-03-18T14:36:54.214Z,14.7
2023-03-18T14:38:57.630Z,14.7
2023-03-18T14:43:04.591Z,14.5
2023-03-18T14:47:15.861Z,14.6
2023-03-18T14:53:24.956Z,14.7
2023-03-18T14:57:31.911Z,14.9
2023-03-18T15:03:45.364Z,15.2
2023-03-18T15:08:06.879Z,15.5
2023-03-18T15:14:20.372Z,15.6
2023-03-18T15:16:23.914Z,15.7
2023-03-18T15:22:34.236Z,15.9
2023-03-18T15:24:37.748Z,15.7
2023-03-18T15:26:44.244Z,15.7
2023-03-18T15:28:47.723Z,15.7
2023-03-18T15:30:51.194Z,15.8
2023-03-18T15:32:54.723Z,16
2023-03-18T15:34:58.136Z,15.9
2023-03-18T15:39:05.077Z,16.1
2023-03-18T15:43:15.055Z,16.1
2023-03-18T15:45:18.455Z,16.2
2023-03-18T15:49:25.349Z,16.2
2023-03-18T15:51:28.798Z,16.7
2023-03-18T15:53:32.224Z,16.5
2023-03-18T15:57:42.253Z,16
2023-03-18T16:00:49.007Z,15.6
2023-03-18T16:02:52.424Z,15.6
2023-03-18T16:04:55.804Z,15.6
2023-03-18T16:06:59.240Z,15.9
2023-03-18T16:09:05.797Z,16.6
2023-03-18T16:11:09.285Z,17.1
2023-03-18T16:13:12.681Z,17.4
2023-03-18T16:15:16.123Z,17.2
2023-03-18T16:17:21.705Z,17.4
2023-03-18T16:19:22.893Z,16.5
2023-03-18T16:21:26.314Z,16.8
2023-03-18T16:23:32.866Z,16.7
2023-03-18T16:25:36.304Z,16.4
2023-03-18T16:27:39.744Z,16.9
2023-03-18T16:29:43.175Z,17.4
2023-03-18T16:31:46.693Z,17.9
2023-03-18T16:33:50.076Z,17.8
2023-03-18T16:35:53.510Z,17.3
2023-03-18T16:38:00.018Z,17.6
2023-03-18T16:40:03.454Z,18.1
2023-03-18T16:42:06.853Z,16.8
2023-03-18T16:44:10.317Z,15.7
2023-03-18T16:48:17.164Z,15.2
2023-03-18T16:50:20.596Z,15.3
2023-03-18T16:52:27.071Z,16
2023-03-18T16:54:30.535Z,15.7
2023-03-18T16:56:33.941Z,15.4
2023-03-18T17:07:57.544Z,14.7
2023-03-18T17:14:09.505Z,14.6
2023-03-18T17:16:11.317Z,14.5
2023-03-18T17:18:14.775Z,14.4
2023-03-18T17:20:21.339Z,14.2
2023-03-18T17:22:24.822Z,14.2
2023-03-18T17:32:42.225Z,13.8
2023-03-18T17:36:52.231Z,13.6
2023-03-18T17:38:55.688Z,13.5
2023-03-18T17:40:59.181Z,13.4
2023-03-18T17:43:02.641Z,13.4
2023-03-18T17:45:06.176Z,13.2
2023-03-18T17:47:09.654Z,13.1
2023-03-18T17:49:16.247Z,13.1
2023-03-18T17:51:19.688Z,13.1
2023-03-18T17:53:23.217Z,13
2023-03-18T17:54:26.532Z,12.8
2023-03-18T17:56:30.009Z,12.9
2023-03-18T17:58:33.510Z,12.8
2023-03-18T18:00:37.026Z,12.7
2023-03-18T18:02:43.794Z,12.5
2023-03-18T18:04:47.164Z,12.5
2023-03-18T18:06:50.652Z,12.4
2023-03-18T18:10:57.692Z,12.3
2023-03-18T18:21:18.431Z,12.1
2023-03-18T18:23:21.946Z,12
2023-03-18T18:27:29.022Z,12.1
2023-03-18T18:35:46.175Z,11.8
2023-03-18T18:41:56.698Z,11.7
2023-03-18T18:44:01.822Z,11.7
2023-03-18T18:46:08.383Z,11.7
2023-03-18T18:54:37.112Z,11.6
2023-03-18T18:56:40.638Z,11.7
2023-03-18T18:58:47.212Z,11.6
2023-03-18T19:02:54.288Z,11.5
2023-03-18T19:04:57.837Z,11.6
2023-03-18T19:07:01.369Z,11.6
2023-03-18T19:09:04.905Z,11.5
2023-03-18T19:11:08.434Z,11.5
2023-03-18T19:19:25.668Z,11.4
2023-03-18T19:21:29.183Z,11.4
2023-03-18T19:23:32.759Z,11.4
2023-03-18T19:25:36.307Z,11.4
2023-03-18T19:27:42.916Z,11.4
2023-03-18T19:29:46.454Z,11.4
2023-03-18T19:31:50.094Z,11.4
2023-03-18T19:35:57.162Z,11.5
2023-03-18T19:42:10.820Z,11.4
2023-03-18T19:46:17.920Z,11.4
2023-03-18T19:47:21.187Z,11.4
2023-03-18T19:51:28.233Z,11.4
2023-03-18T19:53:31.848Z,11.4
2023-03-18T19:57:42.008Z,11.4
2023-03-18T19:59:45.563Z,11.4
2023-03-18T20:01:49.068Z,11.4
2023-03-18T20:03:52.702Z,11.5
2023-03-18T20:05:56.115Z,11.5
2023-03-18T20:07:59.670Z,11.5
2023-03-18T20:10:06.307Z,11.5
2023-03-18T20:12:09.837Z,11.5
2023-03-18T20:14:13.992Z,11.6
2023-03-18T20:16:17.137Z,11.5
2023-03-18T20:18:20.448Z,11.5
2023-03-18T20:22:27.541Z,11.6
2023-03-18T20:24:34.158Z,11.5
2023-03-18T20:26:37.678Z,11.6
2023-03-18T20:28:43.707Z,11.6
2023-03-18T20:30:44.786Z,11.6
2023-03-18T20:32:48.433Z,11.6
2023-03-18T20:34:51.868Z,11.7
2023-03-18T20:41:05.578Z,11.6
2023-03-18T20:43:09.110Z,11.6
2023-03-18T20:46:15.979Z,11.7
2023-03-18T20:48:19.494Z,11.7
2023-03-18T20:52:29.710Z,11.9
2023-03-18T20:56:36.760Z,12
2023-03-18T20:58:40.280Z,12.2
2023-03-18T21:00:43.871Z,12.3
2023-03-18T21:02:47.424Z,12.4
2023-03-18T21:04:50.935Z,12.5
2023-03-18T21:06:57.653Z,12.5
2023-03-18T21:09:01.109Z,12.6
2023-03-18T21:11:04.621Z,12.6
2023-03-18T21:13:08.147Z,12.7
2023-03-18T21:15:11.716Z,12.7
2023-03-18T21:17:15.313Z,12.7
2023-03-18T21:19:18.771Z,12.7
2023-03-18T21:21:25.418Z,12.6
2023-03-18T21:23:28.947Z,12.6
2023-03-18T21:27:36.010Z,12.4
2023-03-18T21:29:39.547Z,12.4
2023-03-18T21:33:46.606Z,12.3
2023-03-18T21:35:53.273Z,12.3
2023-03-18T21:37:57.005Z,12.2
2023-03-18T21:40:00.482Z,12.1
2023-03-18T21:41:03.820Z,12.1
2023-03-18T21:43:07.333Z,12.1
2023-03-18T21:45:10.875Z,12.1
2023-03-18T21:47:14.422Z,12.1
2023-03-18T21:49:21.011Z,12
2023-03-18T21:51:37.696Z,12
2023-03-18T21:53:28.043Z,12
2023-03-18T21:55:32.101Z,11.9
2023-03-18T21:57:35.124Z,11.9
2023-03-18T21:59:38.623Z,11.9
2023-03-18T22:01:42.254Z,11.9
2023-03-18T22:03:48.814Z,11.8
2023-03-18T22:05:52.319Z,11.9
2023-03-18T22:07:55.888Z,11.9
2023-03-18T22:09:59.392Z,11.9
2023-03-18T22:12:03.097Z,11.9
2023-03-18T22:14:06.471Z,11.8
2023-03-18T22:18:16.647Z,11.8
2023-03-18T22:20:20.192Z,11.8
2023-03-18T22:22:23.736Z,11.8
2023-03-18T22:26:30.837Z,11.7
2023-03-18T22:28:34.360Z,11.7
2023-03-18T22:32:44.633Z,11.6
2023-03-18T22:36:51.914Z,11.6
2023-03-18T22:47:32.980Z,11.4
2023-03-18T22:49:36.572Z,11.2
2023-03-18T22:53:43.668Z,11.2
2023-03-18T22:55:47.216Z,11.2
2023-03-18T22:57:50.788Z,11.1
2023-03-18T22:59:57.352Z,11.2
2023-03-18T23:02:01.050Z,11.2
2023-03-18T23:04:04.496Z,11.2
2023-03-18T23:06:08.051Z,11.3
2023-03-18T23:08:11.617Z,11.3
2023-03-18T23:10:15.173Z,11.2
2023-03-18T23:12:18.737Z,11.2
2023-03-18T23:14:25.378Z,11.2
2023-03-18T23:18:32.475Z,11.2
2023-03-18T23:22:39.534Z,11.1
2023-03-18T23:24:43.149Z,11.2
2023-03-18T23:33:00.471Z,11.2
2023-03-18T23:34:03.753Z,11.1
2023-03-18T23:38:10.846Z,11.2
2023-03-18T23:42:21.039Z,11.4
2023-03-18T23:44:24.550Z,11.4
2023-03-18T23:46:28.169Z,11.4
2023-03-18T23:48:31.692Z,11.5
2023-03-18T23:54:42.313Z,11.7
2023-03-18T23:56:48.932Z,11.6
2023-03-18T23:58:52.520Z,11.6
